Anna Maria, Florida
Current Conditions -  °F | °C
As of 4:53 AM on Monday 22 Dec 2014 (Local Time) from KSRQ Reporting Station
Clear Clear  
Wind Chill: 67°   Ceiling: Unl
Heat Index: 67°   Visibility: 10mi
Dew Point: 66°   Wind: 7mph
Humidity: 97%   Direction: 100°E
Pressure: 29.93"   Gusts: NA
Location:  27.53°N, 82.73°W
Report Text: KSRQ 220953Z AUTO 10006KT 10SM CLR 19/19 A2993 RMK AO2 RAE19 SLP133 P0000 T01940189
Loading
Personal Weather Stations






























Interactive Weather Map New forecast layout! Learn more

10-Day Weather Forecast

Advertisements
Track Severe Weather on mobile